Time;durP1;ratioP1;P1;durP2;ratioP2;P2;SDS_P1;SDS_P2;PMS_P1;PMS_P2;Temp;Humidity;BMP_temperature;BMP_pressure;BME280_temperature;BME280_humidity;BME280_pressure;Samples;Min_cycle;Max_cycle;Signal;HPM_P1;HPM_P2
2023/04/14 00:00:58;;;;;;;7.27;4.20;;;6.10;99.90;;;;;;5035021;28;20197;-87
2023/04/14 00:03:24;;;;;;;6.90;4.47;;;6.20;99.90;;;;;;5035018;28;20206;-88
2023/04/14 00:05:49;;;;;;;7.43;4.60;;;6.10;99.90;;;;;;5035099;28;20189;-88
2023/04/14 00:08:15;;;;;;;5.93;3.20;;;6.10;99.90;;;;;;5034553;28;20799;-87
2023/04/14 00:10:41;;;;;;;6.80;3.40;;;6.10;99.90;;;;;;5034801;28;20178;-88
2023/04/14 00:13:07;;;;;;;6.57;3.13;;;6.00;99.90;;;;;;5034936;28;20167;-87
2023/04/14 00:15:32;;;;;;;4.73;2.97;;;6.00;99.90;;;;;;5034691;28;20217;-87
2023/04/14 00:17:58;;;;;;;5.00;3.13;;;5.90;99.90;;;;;;5033638;28;20186;-88
2023/04/14 00:20:24;;;;;;;4.73;3.03;;;5.90;99.90;;;;;;5033280;28;20244;-89
2023/04/14 00:22:49;;;;;;;6.17;3.40;;;5.90;99.90;;;;;;5016708;28;20625;-87
2023/04/14 00:25:15;;;;;;;3.90;2.90;;;6.00;99.90;;;;;;5016978;28;20179;-88
2023/04/14 00:27:41;;;;;;;3.90;3.20;;;5.90;99.90;;;;;;5016970;28;20205;-87
2023/04/14 00:30:07;;;;;;;4.47;3.10;;;6.00;99.90;;;;;;5034570;28;20261;-88
2023/04/14 00:32:33;;;;;;;4.37;3.13;;;5.90;99.90;;;;;;5016661;28;20573;-87
2023/04/14 00:35:01;;;;;;;3.93;2.93;;;5.90;99.90;;;;;;5016677;28;20301;-88
2023/04/14 00:37:28;;;;;;;4.57;2.93;;;5.90;99.90;;;;;;5034026;28;20190;-88
2023/04/14 00:39:54;;;;;;;3.80;3.17;;;5.90;99.90;;;;;;5034056;28;20181;-88
2023/04/14 00:42:19;;;;;;;4.77;3.40;;;5.90;99.90;;;;;;5016679;28;20182;-88
2023/04/14 00:44:46;;;;;;;5.67;3.23;;;5.90;99.90;;;;;;5016744;28;20182;-88
2023/04/14 00:47:12;;;;;;;10.03;3.33;;;5.90;99.90;;;;;;5016494;28;20189;-87
2023/04/14 00:49:38;;;;;;;4.07;3.07;;;5.90;99.90;;;;;;5016549;28;20182;-88
2023/04/14 00:52:05;;;;;;;8.47;3.37;;;5.80;99.90;;;;;;5016292;28;20178;-88
2023/04/14 00:54:33;;;;;;;5.70;3.07;;;5.70;99.90;;;;;;5033401;28;20186;-87
2023/04/14 00:56:59;;;;;;;5.97;3.37;;;5.60;99.90;;;;;;5032995;28;20187;-87
2023/04/14 00:59:27;;;;;;;4.77;3.47;;;5.70;99.90;;;;;;5032794;28;20313;-88
2023/04/14 01:01:53;;;;;;;3.93;2.93;;;5.70;99.90;;;;;;5034068;28;20625;-88
2023/04/14 01:04:20;;;;;;;5.27;3.20;;;5.60;99.90;;;;;;5016535;28;20514;-88
2023/04/14 01:06:45;;;;;;;6.33;3.70;;;5.60;99.90;;;;;;5016161;28;20204;-88
2023/04/14 01:09:11;;;;;;;7.43;3.60;;;5.60;99.90;;;;;;4996459;28;20194;-87
2023/04/14 01:11:55;;;;;;;7.20;3.10;;;5.60;99.90;;;;;;5013041;28;20206;-88
2023/04/14 01:14:33;;;;;;;4.27;3.37;;;5.60;99.90;;;;;;5014381;28;20167;-88
2023/04/14 01:17:22;;;;;;;4.67;3.70;;;5.60;99.90;;;;;;5013076;28;20175;-88
2023/04/14 01:20:10;;;;;;;5.97;3.50;;;5.50;99.90;;;;;;4996713;28;20630;-88
2023/04/14 01:22:42;;;;;;;4.63;3.50;;;5.30;99.90;;;;;;5012486;28;20171;-88
2023/04/14 01:25:21;;;;;;;4.47;3.53;;;5.30;99.90;;;;;;5012839;28;20195;-87
2023/04/14 01:28:04;;;;;;;5.77;3.60;;;5.20;99.90;;;;;;5012971;28;20182;-88
2023/04/14 01:30:47;;;;;;;7.00;3.83;;;5.20;99.90;;;;;;5012720;28;20614;-86
2023/04/14 01:33:18;;;;;;;5.70;3.40;;;5.20;99.90;;;;;;5012787;28;20168;-88
2023/04/14 01:35:50;;;;;;;3.80;3.17;;;5.30;99.90;;;;;;5013952;28;20297;-88
2023/04/14 01:38:26;;;;;;;4.77;2.97;;;5.30;99.90;;;;;;5005220;28;20179;-87
2023/04/14 01:40:56;;;;;;;4.50;3.00;;;5.20;99.90;;;;;;4996346;28;20175;-88
2023/04/14 01:43:26;;;;;;;3.43;2.80;;;5.20;99.90;;;;;;4996576;28;20175;-88
2023/04/14 01:45:55;;;;;;;5.83;3.27;;;5.20;99.90;;;;;;4996451;28;20179;-88
2023/04/14 01:48:24;;;;;;;5.03;3.20;;;5.10;99.90;;;;;;4996381;28;20179;-88
2023/04/14 01:50:50;;;;;;;4.27;3.17;;;5.10;99.90;;;;;;4996360;28;20274;-88
2023/04/14 01:53:18;;;;;;;6.67;3.10;;;5.10;99.90;;;;;;5013775;28;20218;-87
2023/04/14 01:55:47;;;;;;;4.27;3.10;;;5.10;99.90;;;;;;5013968;28;20237;-88
2023/04/14 01:58:14;;;;;;;5.90;3.57;;;5.10;99.90;;;;;;4996288;28;20254;-87
2023/04/14 02:00:41;;;;;;;4.80;3.33;;;5.10;99.90;;;;;;5012533;28;20201;-87
2023/04/14 02:03:08;;;;;;;5.20;3.33;;;5.10;99.90;;;;;;5013777;28;20168;-88
2023/04/14 02:05:37;;;;;;;5.03;3.90;;;5.00;99.90;;;;;;5014087;28;20673;-88
2023/04/14 02:08:08;;;;;;;4.57;3.60;;;4.90;99.90;;;;;;5010085;28;20321;-88
2023/04/14 02:10:36;;;;;;;5.53;3.97;;;4.90;99.90;;;;;;5037168;28;20163;-88
2023/04/14 02:13:03;;;;;;;4.77;3.87;;;4.90;99.90;;;;;;5019503;28;20618;-88
2023/04/14 02:15:32;;;;;;;6.17;3.60;;;4.90;99.90;;;;;;5035875;28;20201;-88
2023/04/14 02:17:59;;;;;;;5.47;3.80;;;4.80;99.90;;;;;;5019611;28;20281;-88
2023/04/14 02:20:27;;;;;;;6.83;3.87;;;4.70;99.90;;;;;;5019257;28;20178;-88
2023/04/14 02:22:53;;;;;;;4.63;3.87;;;4.60;99.90;;;;;;5036740;28;20261;-87
2023/04/14 02:25:24;;;;;;;4.83;3.70;;;4.60;99.90;;;;;;5019125;28;20182;-88
2023/04/14 02:27:59;;;;;;;6.17;4.20;;;4.60;99.90;;;;;;5036933;28;20301;-88
2023/04/14 02:30:40;;;;;;;4.33;3.80;;;4.60;99.90;;;;;;5036757;28;20196;-88
2023/04/14 02:33:13;;;;;;;6.47;4.37;;;4.60;99.90;;;;;;5019226;28;20170;-88
2023/04/14 02:35:47;;;;;;;7.43;4.73;;;4.50;99.90;;;;;;5035597;28;20214;-88
2023/04/14 02:38:32;;;;;;;5.50;4.17;;;4.50;99.90;;;;;;5036434;28;20213;-87
2023/04/14 02:41:01;;;;;;;6.47;4.63;;;4.50;99.90;;;;;;5019060;28;20182;-88
2023/04/14 02:43:32;;;;;;;4.90;4.17;;;4.60;99.90;;;;;;5036775;28;20598;-88
2023/04/14 02:46:01;;;;;;;8.30;6.00;;;4.60;99.90;;;;;;5018822;28;20268;-87
2023/04/14 02:48:31;;;;;;;7.40;5.10;;;4.60;99.90;;;;;;5018863;28;20217;-87
2023/04/14 02:50:59;;;;;;;8.70;4.90;;;4.70;99.90;;;;;;5036246;28;20171;-87
2023/04/14 02:53:26;;;;;;;8.40;4.70;;;4.60;99.90;;;;;;5018353;28;20625;-87
2023/04/14 02:55:52;;;;;;;6.80;4.87;;;4.60;99.90;;;;;;5018543;28;20298;-87
2023/04/14 02:58:19;;;;;;;7.17;5.13;;;4.60;99.90;;;;;;5018515;28;20266;-87
2023/04/14 03:00:46;;;;;;;6.63;4.97;;;4.50;99.90;;;;;;5018288;28;20179;-88
2023/04/14 03:03:12;;;;;;;6.63;4.57;;;4.50;99.90;;;;;;5018571;28;20213;-88
2023/04/14 03:05:42;;;;;;;7.73;4.37;;;4.50;99.90;;;;;;5036024;28;20608;-87
2023/04/14 03:08:13;;;;;;;6.40;4.23;;;4.50;99.90;;;;;;5047182;28;20234;-88
2023/04/14 03:10:40;;;;;;;5.90;4.17;;;4.50;99.90;;;;;;5038169;28;20497;-87
2023/04/14 03:13:06;;;;;;;6.43;4.10;;;4.40;99.90;;;;;;5038055;28;20208;-87
2023/04/14 03:15:33;;;;;;;5.47;4.20;;;4.40;99.90;;;;;;5037950;28;20217;-88
2023/04/14 03:18:00;;;;;;;5.93;3.73;;;4.30;99.90;;;;;;5055426;28;20174;-88
2023/04/14 03:20:26;;;;;;;8.07;4.93;;;4.20;99.90;;;;;;5037942;28;20193;-88
2023/04/14 03:23:00;;;;;;;6.90;4.00;;;4.10;99.90;;;;;;5037751;28;20265;-87
2023/04/14 03:25:31;;;;;;;7.20;5.23;;;4.10;99.90;;;;;;5037892;28;20185;-87
2023/04/14 03:27:59;;;;;;;9.10;4.53;;;4.10;99.90;;;;;;5055448;28;20177;-88
2023/04/14 03:30:29;;;;;;;10.47;4.70;;;4.10;99.90;;;;;;5037576;28;20181;-88
2023/04/14 03:33:02;;;;;;;6.37;4.60;;;4.20;99.90;;;;;;5037693;28;20170;-88
2023/04/14 03:35:29;;;;;;;6.67;4.50;;;4.20;99.90;;;;;;5055693;28;20208;-87
2023/04/14 03:37:58;;;;;;;8.67;4.27;;;4.30;99.90;;;;;;5027981;28;20190;-88
2023/04/14 03:40:30;;;;;;;5.20;4.50;;;4.30;99.90;;;;;;5018275;28;20222;-87
2023/04/14 03:42:57;;;;;;;6.20;4.67;;;4.30;99.90;;;;;;5018003;28;20233;-88
2023/04/14 03:45:27;;;;;;;4.90;4.00;;;4.30;99.90;;;;;;5035461;28;20174;-87
2023/04/14 03:47:56;;;;;;;6.50;4.40;;;4.30;99.90;;;;;;5017713;28;20222;-87
2023/04/14 03:50:30;;;;;;;8.17;4.17;;;4.20;99.90;;;;;;5017374;28;20220;-87
2023/04/14 03:52:58;;;;;;;5.63;3.83;;;4.10;99.90;;;;;;5017272;28;20175;-87
2023/04/14 03:55:26;;;;;;;5.23;4.13;;;4.00;99.90;;;;;;5017346;28;20202;-88
2023/04/14 03:57:55;;;;;;;5.90;4.10;;;4.00;99.90;;;;;;5017480;28;20214;-87
2023/04/14 04:00:22;;;;;;;5.40;4.40;;;3.90;99.90;;;;;;5017442;28;20261;-86
2023/04/14 04:02:49;;;;;;;6.10;4.73;;;3.80;99.90;;;;;;5035150;28;20174;-87
2023/04/14 04:05:15;;;;;;;7.23;4.10;;;3.80;99.90;;;;;;5017148;28;20274;-88
2023/04/14 04:07:45;;;;;;;6.53;4.80;;;3.80;99.90;;;;;;5017205;28;20241;-88
2023/04/14 04:10:13;;;;;;;6.10;4.57;;;3.90;99.90;;;;;;5016964;28;20175;-88
2023/04/14 04:12:42;;;;;;;5.90;4.80;;;4.00;99.90;;;;;;5033713;28;20232;-87
2023/04/14 04:15:08;;;;;;;6.80;4.77;;;4.10;99.90;;;;;;5017057;28;20199;-88
2023/04/14 04:17:36;;;;;;;8.20;4.40;;;4.10;99.90;;;;;;5016929;28;20190;-87
2023/04/14 04:20:06;;;;;;;8.67;4.47;;;4.10;99.90;;;;;;5016899;28;20675;-87
2023/04/14 04:22:36;;;;;;;6.87;4.47;;;4.10;99.90;;;;;;5016858;28;20178;-88
2023/04/14 04:25:03;;;;;;;6.37;4.53;;;4.00;99.90;;;;;;5016777;28;20237;-88
2023/04/14 04:27:29;;;;;;;8.20;4.87;;;4.00;99.90;;;;;;5034560;28;20178;-87
2023/04/14 04:29:55;;;;;;;6.83;4.67;;;3.90;99.90;;;;;;5016152;28;20616;-88
2023/04/14 04:32:21;;;;;;;6.97;5.30;;;3.90;99.90;;;;;;5033179;28;20178;-87
2023/04/14 04:34:49;;;;;;;9.53;5.43;;;3.90;99.90;;;;;;5016784;28;20189;-87
2023/04/14 04:37:16;;;;;;;8.73;5.17;;;3.90;99.90;;;;;;5034312;28;20240;-88
2023/04/14 04:39:41;;;;;;;7.67;5.43;;;3.90;99.90;;;;;;5016484;28;20183;-87
2023/04/14 04:42:07;;;;;;;8.63;5.80;;;3.90;99.90;;;;;;5016836;28;20189;-87
2023/04/14 04:44:34;;;;;;;7.03;5.03;;;4.00;99.90;;;;;;5016730;28;20543;-88
2023/04/14 04:47:00;;;;;;;7.80;5.03;;;4.00;99.90;;;;;;5034247;28;20250;-87
2023/04/14 04:49:26;;;;;;;6.23;4.97;;;4.00;99.90;;;;;;5016381;28;20190;-87
2023/04/14 04:51:52;;;;;;;7.60;5.50;;;4.10;99.90;;;;;;5033915;28;20178;-87
2023/04/14 04:54:18;;;;;;;8.50;5.53;;;4.00;99.90;;;;;;5033734;28;20281;-88
2023/04/14 04:56:45;;;;;;;6.43;5.23;;;4.00;99.90;;;;;;5034102;28;20202;-88
2023/04/14 04:59:10;;;;;;;8.37;5.47;;;4.00;99.90;;;;;;5034015;28;20171;-87
2023/04/14 05:01:36;;;;;;;8.63;6.10;;;4.10;99.90;;;;;;5032563;28;20186;-87
2023/04/14 05:04:02;;;;;;;10.93;5.73;;;4.10;99.90;;;;;;5032949;28;20228;-88
2023/04/14 05:06:28;;;;;;;7.03;5.53;;;4.10;99.90;;;;;;5032791;28;20182;-87
2023/04/14 05:08:55;;;;;;;10.43;5.67;;;4.10;99.90;;;;;;5016021;28;20567;-87
2023/04/14 05:11:21;;;;;;;10.50;5.90;;;4.20;99.90;;;;;;5033879;28;20178;-87
2023/04/14 05:13:46;;;;;;;6.27;5.20;;;4.30;99.90;;;;;;5016363;28;20196;-87
2023/04/14 05:16:13;;;;;;;7.70;5.40;;;4.30;99.90;;;;;;5016483;28;20548;-88
2023/04/14 05:18:39;;;;;;;8.97;5.40;;;4.30;99.90;;;;;;5016452;28;20506;-87
2023/04/14 05:21:06;;;;;;;10.57;6.27;;;4.40;99.90;;;;;;5033738;28;20174;-87
2023/04/14 05:23:33;;;;;;;8.37;5.73;;;4.40;99.90;;;;;;5032237;28;20167;-87
2023/04/14 05:25:59;;;;;;;10.83;5.93;;;4.40;99.90;;;;;;5033861;28;20178;-87
2023/04/14 05:28:25;;;;;;;8.90;5.80;;;4.40;99.90;;;;;;5015996;28;20498;-87
2023/04/14 05:30:51;;;;;;;9.43;6.27;;;4.40;99.90;;;;;;5033485;28;20205;-87
2023/04/14 05:33:17;;;;;;;7.83;5.80;;;4.50;99.90;;;;;;5016132;28;20171;-86
2023/04/14 05:35:46;;;;;;;8.13;6.03;;;4.50;99.90;;;;;;5015897;28;20221;-88
2023/04/14 05:38:15;;;;;;;9.47;6.20;;;4.50;99.90;;;;;;5033548;28;20181;-87
2023/04/14 05:40:41;;;;;;;7.93;5.27;;;4.50;99.90;;;;;;5035675;28;20639;-88
2023/04/14 05:43:06;;;;;;;9.73;5.63;;;4.40;99.90;;;;;;5019911;28;20170;-88
2023/04/14 05:45:32;;;;;;;7.23;5.67;;;4.40;99.90;;;;;;5019850;28;20209;-87
2023/04/14 05:47:58;;;;;;;9.00;5.30;;;4.40;99.90;;;;;;5020160;28;20189;-88
2023/04/14 05:50:23;;;;;;;7.33;5.07;;;4.40;99.90;;;;;;5019665;28;20882;-87
2023/04/14 05:52:50;;;;;;;7.57;5.20;;;4.40;99.90;;;;;;5036242;28;20182;-87
2023/04/14 05:55:16;;;;;;;10.23;5.23;;;4.40;99.90;;;;;;5019538;28;20210;-87
2023/04/14 05:57:42;;;;;;;8.10;5.87;;;4.40;99.90;;;;;;5019827;28;20265;-87
2023/04/14 06:00:09;;;;;;;6.60;5.23;;;4.50;99.90;;;;;;5019369;28;20187;-87
2023/04/14 06:02:35;;;;;;;9.17;5.33;;;4.50;99.90;;;;;;5019291;28;20182;-87
2023/04/14 06:05:03;;;;;;;10.37;5.50;;;4.60;99.90;;;;;;5036157;28;20516;-88
2023/04/14 06:07:29;;;;;;;9.83;5.47;;;4.60;99.90;;;;;;5019485;28;20325;-87
2023/04/14 06:09:55;;;;;;;6.47;5.30;;;4.70;99.90;;;;;;5019292;28;20266;-87
2023/04/14 06:12:21;;;;;;;7.57;5.33;;;4.80;99.90;;;;;;5019228;28;20182;-88
2023/04/14 06:14:47;;;;;;;8.63;5.60;;;4.90;99.90;;;;;;5036963;28;20198;-87
2023/04/14 06:17:13;;;;;;;7.07;5.77;;;5.00;99.90;;;;;;5035912;28;20623;-88
2023/04/14 06:19:38;;;;;;;7.17;5.53;;;5.00;99.90;;;;;;5036980;28;20511;-87
2023/04/14 06:22:04;;;;;;;9.07;5.73;;;5.10;99.90;;;;;;5035633;28;20277;-87
2023/04/14 06:24:33;;;;;;;9.77;5.77;;;5.20;99.90;;;;;;5019016;28;20182;-88
2023/04/14 06:27:03;;;;;;;9.33;6.07;;;5.30;99.90;;;;;;5019203;28;20186;-87
2023/04/14 06:29:29;;;;;;;9.60;6.00;;;5.30;99.90;;;;;;5019339;28;20237;-88
2023/04/14 06:31:56;;;;;;;11.57;6.10;;;5.30;99.90;;;;;;5019037;28;20185;-88
2023/04/14 06:34:22;;;;;;;7.77;5.67;;;5.30;99.90;;;;;;5019187;28;20206;-87
2023/04/14 06:36:48;;;;;;;6.50;5.37;;;5.30;99.90;;;;;;5036622;28;20219;-87
2023/04/14 06:39:14;;;;;;;10.87;5.87;;;5.40;99.90;;;;;;5036273;28;20183;-88
2023/04/14 06:41:40;;;;;;;8.33;6.00;;;5.50;99.90;;;;;;5036484;28;20188;-88
2023/04/14 06:44:06;;;;;;;8.00;5.80;;;5.40;99.90;;;;;;5018831;28;20554;-88
2023/04/14 06:46:34;;;;;;;7.80;5.50;;;5.50;99.90;;;;;;5018728;28;20193;-87
2023/04/14 06:49:01;;;;;;;9.20;5.53;;;5.50;99.90;;;;;;5018657;28;20189;-88
2023/04/14 06:51:26;;;;;;;9.73;6.20;;;5.50;99.90;;;;;;5017757;28;20182;-88
2023/04/14 06:53:52;;;;;;;9.77;5.53;;;5.60;99.90;;;;;;5018549;28;20166;-88
2023/04/14 06:56:18;;;;;;;7.93;6.07;;;5.60;99.90;;;;;;5018682;28;20302;-88
2023/04/14 06:58:43;;;;;;;7.67;5.17;;;5.70;99.90;;;;;;5018692;28;20202;-88
2023/04/14 07:01:09;;;;;;;10.93;6.13;;;5.80;99.90;;;;;;5018468;28;20259;-88
2023/04/14 07:03:35;;;;;;;8.80;5.77;;;5.90;99.90;;;;;;5036372;28;20178;-88
2023/04/14 07:06:06;;;;;;;8.57;5.40;;;5.90;99.90;;;;;;5018496;28;20183;-88
2023/04/14 07:08:33;;;;;;;10.30;6.03;;;6.00;99.90;;;;;;5017915;28;20270;-88
2023/04/14 07:11:07;;;;;;;6.90;4.97;;;6.10;99.90;;;;;;5018290;28;20609;-89
2023/04/14 07:13:33;;;;;;;7.10;5.10;;;6.20;99.90;;;;;;5018598;28;20190;-89
2023/04/14 07:16:02;;;;;;;8.33;5.60;;;6.20;99.90;;;;;;5018569;28;20221;-88
2023/04/14 07:18:31;;;;;;;7.33;4.77;;;6.30;99.90;;;;;;5018464;28;20610;-88
2023/04/14 07:20:58;;;;;;;7.13;4.77;;;6.30;99.90;;;;;;5035805;28;20182;-88
2023/04/14 07:23:24;;;;;;;6.40;4.20;;;6.40;99.90;;;;;;5018154;28;20528;-88
2023/04/14 07:25:59;;;;;;;9.47;5.40;;;6.50;99.90;;;;;;5018054;28;20182;-88
2023/04/14 07:28:26;;;;;;;7.80;4.80;;;6.60;99.90;;;;;;5018591;28;20177;-88
2023/04/14 07:30:53;;;;;;;9.93;5.13;;;6.60;99.90;;;;;;5036082;28;20178;-88
2023/04/14 07:33:20;;;;;;;7.13;4.60;;;6.70;99.90;;;;;;5018157;28;20272;-88
2023/04/14 07:35:49;;;;;;;6.73;5.20;;;6.70;99.90;;;;;;5035691;28;20281;-88
2023/04/14 07:38:16;;;;;;;9.90;5.60;;;6.80;99.90;;;;;;5018181;28;20301;-88
2023/04/14 07:40:41;;;;;;;6.10;4.60;;;6.80;99.90;;;;;;5017687;28;20174;-90
2023/04/14 07:43:07;;;;;;;9.37;5.27;;;6.90;99.90;;;;;;5035793;28;20186;-88
2023/04/14 07:45:33;;;;;;;6.53;4.90;;;6.90;99.90;;;;;;5017976;28;20265;-88
2023/04/14 07:47:59;;;;;;;6.97;4.53;;;7.00;99.90;;;;;;5035591;28;20216;-88
2023/04/14 07:50:25;;;;;;;10.50;5.20;;;7.10;99.90;;;;;;5017836;28;20179;-88
2023/04/14 07:52:51;;;;;;;6.53;4.37;;;7.20;99.90;;;;;;5017590;28;20520;-87
2023/04/14 07:55:17;;;;;;;7.13;4.57;;;7.30;99.90;;;;;;5035127;28;20629;-88
2023/04/14 07:57:42;;;;;;;6.07;4.43;;;7.40;99.90;;;;;;5017633;28;20232;-87
2023/04/14 08:00:09;;;;;;;7.43;5.00;;;7.30;99.90;;;;;;5035403;28;20185;-88
2023/04/14 08:02:35;;;;;;;6.67;4.83;;;7.40;99.90;;;;;;5017613;28;20193;-89
2023/04/14 08:05:01;;;;;;;8.00;5.63;;;7.50;99.90;;;;;;5017688;28;20185;-88
2023/04/14 08:07:30;;;;;;;8.73;5.50;;;7.60;99.90;;;;;;5035178;28;20222;-89
2023/04/14 08:09:56;;;;;;;8.07;5.23;;;7.60;99.90;;;;;;5034909;28;20167;-88
2023/04/14 08:12:23;;;;;;;8.17;6.00;;;7.70;99.90;;;;;;5017277;28;20186;-90
2023/04/14 08:14:49;;;;;;;7.80;5.50;;;7.90;99.90;;;;;;5017674;28;20182;-90
2023/04/14 08:17:14;;;;;;;11.20;5.50;;;8.00;99.90;;;;;;5017544;28;20228;-88
2023/04/14 08:19:40;;;;;;;12.23;5.43;;;8.10;99.90;;;;;;5017300;28;20183;-90
2023/04/14 08:22:06;;;;;;;7.57;5.53;;;8.20;99.90;;;;;;5035436;28;20684;-90
2023/04/14 08:24:35;;;;;;;7.83;5.27;;;8.30;99.90;;;;;;5034699;28;20173;-89
2023/04/14 08:27:01;;;;;;;6.13;4.73;;;8.40;99.90;;;;;;5017590;28;20181;-90
2023/04/14 08:29:27;;;;;;;6.67;4.70;;;8.40;99.90;;;;;;5017942;28;20174;-89
2023/04/14 08:31:54;;;;;;;6.57;5.10;;;8.50;99.90;;;;;;5035058;28;20170;-88
2023/04/14 08:34:19;;;;;;;9.27;4.85;;;8.60;99.90;;;;;;5017211;28;20262;-89
2023/04/14 08:36:46;;;;;;;7.43;5.30;;;8.60;99.90;;;;;;5034356;28;20348;-88
2023/04/14 08:39:12;;;;;;;8.73;5.17;;;8.70;99.90;;;;;;5013366;28;20179;-90
2023/04/14 08:41:39;;;;;;;6.00;4.70;;;8.90;99.90;;;;;;5014982;28;20195;-89
2023/04/14 08:44:05;;;;;;;9.98;5.43;;;8.90;99.90;;;;;;5015088;28;20176;-90
2023/04/14 08:46:31;;;;;;;6.78;4.75;;;9.00;99.90;;;;;;5014918;28;20630;-89
2023/04/14 08:49:11;;;;;;;6.20;4.18;;;9.10;99.90;;;;;;5014832;28;20175;-90
2023/04/14 08:51:42;;;;;;;7.05;4.13;;;9.20;99.90;;;;;;4997320;28;20294;-89
2023/04/14 08:54:09;;;;;;;7.57;4.25;;;9.20;99.90;;;;;;5014308;28;20229;-88
2023/04/14 08:56:41;;;;;;;5.38;4.18;;;9.30;99.90;;;;;;5014540;28;20210;-88
2023/04/14 08:59:09;;;;;;;9.82;4.78;;;9.40;99.90;;;;;;4997035;28;20575;-88
2023/04/14 09:01:36;;;;;;;6.88;4.35;;;9.50;99.90;;;;;;5014313;28;20217;-88
2023/04/14 09:04:05;;;;;;;5.60;4.30;;;9.50;99.90;;;;;;5014239;28;20172;-88
2023/04/14 09:06:32;;;;;;;4.75;4.07;;;9.50;99.90;;;;;;5014346;28;20171;-87
2023/04/14 09:09:02;;;;;;;5.80;4.22;;;9.60;99.90;;;;;;5031879;28;20329;-87
2023/04/14 09:11:29;;;;;;;8.95;6.68;;;9.70;99.90;;;;;;5032755;28;20170;-88
2023/04/14 09:13:57;;;;;;;8.38;4.85;;;9.80;99.90;;;;;;5016113;28;20171;-87
2023/04/14 09:16:25;;;;;;;20.60;12.60;;;9.80;99.90;;;;;;5033391;28;20650;-88
2023/04/14 09:18:52;;;;;;;189.82;106.57;;;9.90;99.90;;;;;;5016436;28;20283;-89
2023/04/14 09:21:18;;;;;;;6.55;4.53;;;9.90;99.90;;;;;;5016303;28;20521;-89
2023/04/14 09:23:45;;;;;;;8.03;4.80;;;9.80;99.90;;;;;;5033911;28;20166;-88
2023/04/14 09:26:12;;;;;;;7.28;5.18;;;9.80;99.90;;;;;;5015878;28;20258;-87
2023/04/14 09:28:38;;;;;;;6.75;4.43;;;9.80;99.90;;;;;;5033835;28;20174;-87
2023/04/14 09:31:04;;;;;;;7.80;4.93;;;10.00;99.90;;;;;;5015893;28;20237;-87
2023/04/14 09:33:31;;;;;;;6.47;5.85;;;10.10;99.90;;;;;;5016004;28;20621;-87
2023/04/14 09:35:57;;;;;;;7.55;4.38;;;10.10;99.90;;;;;;5016294;28;20211;-88
2023/04/14 09:38:36;;;;;;;7.72;4.70;;;10.20;99.90;;;;;;5016143;28;20631;-86
2023/04/14 09:41:06;;;;;;;6.95;4.90;;;10.30;99.90;;;;;;5015686;28;20183;-88
2023/04/14 09:43:32;;;;;;;6.25;4.65;;;10.40;99.90;;;;;;5015848;28;20179;-87
2023/04/14 09:46:04;;;;;;;10.43;6.32;;;10.50;99.90;;;;;;5032729;28;20628;-88
2023/04/14 09:48:30;;;;;;;28.95;16.30;;;10.70;99.90;;;;;;5033707;28;20193;-87
2023/04/14 09:50:57;;;;;;;10.13;6.50;;;10.70;99.90;;;;;;5032368;28;20613;-89
2023/04/14 09:53:27;;;;;;;12.60;7.20;;;10.80;99.90;;;;;;5033435;28;20237;-86
2023/04/14 09:55:53;;;;;;;11.93;7.45;;;10.90;99.90;;;;;;5033102;28;20198;-87
2023/04/14 09:58:21;;;;;;;7.45;5.70;;;11.00;99.90;;;;;;5015750;28;20274;-87
2023/04/14 10:00:48;;;;;;;7.25;5.60;;;11.00;99.90;;;;;;5015784;28;20497;-87
2023/04/14 10:03:13;;;;;;;6.63;5.28;;;11.20;99.90;;;;;;5033164;28;20167;-88
2023/04/14 10:05:44;;;;;;;10.50;4.93;;;11.20;99.90;;;;;;5015553;28;20186;-87
2023/04/14 10:08:10;;;;;;;8.90;5.32;;;11.30;99.90;;;;;;5015498;28;20272;-87
2023/04/14 10:10:36;;;;;;;10.48;5.53;;;11.50;99.90;;;;;;5032816;28;20167;-87
2023/04/14 10:13:02;;;;;;;9.00;4.50;;;11.60;99.90;;;;;;5031937;28;20233;-88
2023/04/14 10:15:27;;;;;;;9.18;4.10;;;11.60;99.90;;;;;;5033244;28;20186;-86
2023/04/14 10:17:53;;;;;;;7.38;4.70;;;11.50;99.90;;;;;;5033387;28;20190;-88
2023/04/14 10:20:19;;;;;;;6.75;4.47;;;11.40;99.90;;;;;;5032895;28;20175;-88
2023/04/14 10:22:46;;;;;;;5.82;4.63;;;11.30;99.90;;;;;;5015323;28;20182;-88
2023/04/14 10:25:12;;;;;;;6.43;4.75;;;11.30;99.90;;;;;;5032867;28;20548;-86
2023/04/14 10:27:39;;;;;;;7.75;4.60;;;11.30;99.90;;;;;;5017492;28;20640;-87
2023/04/14 10:30:07;;;;;;;8.18;5.53;;;11.20;99.90;;;;;;5018927;28;20224;-88
2023/04/14 10:32:35;;;;;;;10.43;6.53;;;11.30;99.90;;;;;;5035480;28;20269;-87
2023/04/14 10:35:11;;;;;;;5.72;3.50;;;11.30;99.90;;;;;;5017920;28;20527;-88
2023/04/14 10:37:37;;;;;;;4.78;3.80;;;11.30;99.90;;;;;;5036533;28;20610;-87
2023/04/14 10:40:05;;;;;;;7.45;3.85;;;11.10;99.90;;;;;;5036219;28;20265;-86
2023/04/14 10:43:10;;;;;;;7.47;4.45;;;11.20;99.90;;;;;;5018401;28;20240;-86
2023/04/14 10:45:54;;;;;;;5.97;4.10;;;11.20;99.90;;;;;;4939817;29;20174;-87
2023/04/14 10:48:23;;;;;;;9.05;5.32;;;11.20;99.90;;;;;;5014244;28;20194;-87
2023/04/14 10:50:54;;;;;;;6.80;4.47;;;11.30;99.90;;;;;;5018414;28;20179;-87
2023/04/14 10:53:32;;;;;;;6.10;4.28;;;11.20;99.90;;;;;;5036360;28;20166;-88
2023/04/14 10:56:02;;;;;;;6.13;4.63;;;11.10;99.90;;;;;;5018264;28;20210;-88
2023/04/14 10:58:28;;;;;;;7.45;4.22;;;11.10;99.90;;;;;;5018398;28;20178;-86
2023/04/14 11:00:57;;;;;;;6.13;3.72;;;11.10;99.90;;;;;;5035863;28;20174;-86
2023/04/14 11:03:23;;;;;;;5.90;3.63;;;11.10;99.90;;;;;;5018362;28;20210;-86
2023/04/14 11:05:52;;;;;;;5.60;3.33;;;11.10;99.90;;;;;;5018556;28;20209;-87
2023/04/14 11:08:26;;;;;;;5.43;3.17;;;11.10;99.90;;;;;;5035867;28;20230;-87
2023/04/14 11:11:03;;;;;;;4.72;3.08;;;11.20;99.90;;;;;;5017966;28;20200;-88
2023/04/14 11:13:30;;;;;;;7.30;3.45;;;11.20;99.90;;;;;;5010887;28;20190;-87
2023/04/14 11:16:01;;;;;;;7.53;3.95;;;11.40;99.90;;;;;;5019326;28;20526;-87
2023/04/14 11:18:36;;;;;;;5.22;3.20;;;11.30;99.90;;;;;;5035675;28;20270;-87
2023/04/14 11:21:07;;;;;;;4.78;3.13;;;11.30;99.90;;;;;;5034212;28;20228;-87
2023/04/14 11:23:35;;;;;;;5.55;3.17;;;11.20;99.90;;;;;;5035656;28;20228;-89
2023/04/14 11:26:03;;;;;;;6.70;3.60;;;11.40;99.90;;;;;;5017972;28;20513;-88
2023/04/14 11:28:34;;;;;;;7.75;2.88;;;11.50;99.90;;;;;;5034205;28;20178;-86
2023/04/14 11:31:02;;;;;;;4.47;2.80;;;11.60;99.90;;;;;;5034131;28;20197;-86
2023/04/14 11:33:36;;;;;;;3.63;2.50;;;11.60;99.90;;;;;;5034327;28;20221;-87
2023/04/14 11:36:04;;;;;;;5.05;2.38;;;11.60;99.90;;;;;;5017639;28;20662;-84
2023/04/14 11:38:30;;;;;;;2.08;1.80;;;11.70;99.90;;;;;;5033909;28;20273;-85
2023/04/14 11:40:56;;;;;;;4.90;2.40;;;11.50;99.90;;;;;;5035110;28;20175;-85
2023/04/14 11:43:23;;;;;;;7.20;2.75;;;11.70;99.90;;;;;;5033880;28;20178;-88
2023/04/14 11:45:50;;;;;;;4.47;2.70;;;11.70;99.90;;;;;;5017370;28;20183;-87
2023/04/14 11:48:20;;;;;;;4.10;2.45;;;11.60;99.90;;;;;;5017218;28;20264;-86
2023/04/14 11:50:47;;;;;;;3.40;2.65;;;11.50;99.90;;;;;;5034972;28;20170;-86
2023/04/14 11:53:15;;;;;;;4.30;2.95;;;11.70;99.90;;;;;;5035252;28;20175;-86
2023/04/14 11:55:46;;;;;;;3.30;2.70;;;11.70;99.90;;;;;;5017166;28;20221;-88
2023/04/14 11:58:14;;;;;;;5.55;2.78;;;11.60;99.90;;;;;;5017758;28;20523;-87
2023/04/14 12:00:40;;;;;;;5.70;2.58;;;11.70;99.90;;;;;;5034844;28;20169;-86
2023/04/14 12:03:07;;;;;;;6.93;3.13;;;11.90;99.90;;;;;;5017048;28;20190;-87
2023/04/14 12:05:34;;;;;;;3.40;2.60;;;12.00;99.90;;;;;;5017142;28;20198;-85
2023/04/14 12:08:02;;;;;;;4.03;2.00;;;12.10;99.90;;;;;;5017258;28;20332;-87
2023/04/14 12:10:28;;;;;;;4.50;2.08;;;12.20;99.90;;;;;;5016852;28;20178;-86
2023/04/14 12:13:10;;;;;;;5.55;2.65;;;12.10;99.90;;;;;;5034472;28;20220;-88
2023/04/14 12:15:38;;;;;;;3.25;2.05;;;12.20;99.90;;;;;;5016859;28;20521;-84
2023/04/14 12:18:08;;;;;;;3.97;1.95;;;12.20;99.90;;;;;;5034826;28;20182;-87
2023/04/14 12:20:45;;;;;;;3.03;1.77;;;12.10;99.90;;;;;;5016994;28;20224;-86
2023/04/14 12:23:11;;;;;;;3.00;1.48;;;12.10;99.90;;;;;;5016653;28;20269;-86
2023/04/14 12:25:37;;;;;;;8.65;2.55;;;11.90;99.90;;;;;;5032744;28;20278;-86
2023/04/14 12:28:06;;;;;;;5.32;2.40;;;11.90;99.90;;;;;;5015848;28;20208;-86
2023/04/14 12:30:32;;;;;;;4.10;2.22;;;11.90;99.90;;;;;;5016569;28;20257;-87
2023/04/14 12:32:58;;;;;;;2.70;2.20;;;12.00;99.90;;;;;;5015374;28;20716;-86
2023/04/14 12:35:24;;;;;;;5.72;2.20;;;12.10;99.90;;;;;;5016249;28;20296;-88
2023/04/14 12:37:51;;;;;;;4.65;2.10;;;12.20;99.90;;;;;;5019556;28;20193;-88
2023/04/14 12:40:17;;;;;;;4.45;2.65;;;12.20;99.90;;;;;;5036242;28;20323;-87
2023/04/14 12:42:46;;;;;;;3.47;2.50;;;12.20;99.90;;;;;;5036312;28;20632;-87
2023/04/14 12:45:12;;;;;;;3.03;2.20;;;12.40;99.90;;;;;;5037840;28;20542;-87
2023/04/14 12:47:38;;;;;;;3.42;2.45;;;12.40;99.90;;;;;;5034099;28;20166;-87
2023/04/14 12:50:25;;;;;;;4.50;2.15;;;12.50;99.90;;;;;;5015672;28;20185;-86
2023/04/14 12:52:51;;;;;;;3.08;2.05;;;12.70;99.90;;;;;;5016285;28;20633;-87
2023/04/14 12:55:21;;;;;;;3.15;2.25;;;12.90;99.90;;;;;;5033840;28;20202;-86
2023/04/14 12:57:50;;;;;;;2.53;2.00;;;13.10;99.90;;;;;;5032790;28;20185;-87